Time;durP1;ratioP1;P1;durP2;ratioP2;P2;SDS_P1;SDS_P2;PMS_P1;PMS_P2;Temp;Humidity;BMP_temperature;BMP_pressure;BME280_temperature;BME280_humidity;BME280_pressure;Samples;Min_cycle;Max_cycle;Signal;HPM_P1;HPM_P2
2022/06/06 00:02:26;;;;;;;;;;;18.40;92.10;;;;;;4912264;29;20042;-81
2022/06/06 00:04:53;;;;;;;;;;;18.40;92.10;;;;;;4916398;29;19978;-85
2022/06/06 00:07:20;;;;;;;;;;;18.30;92.10;;;;;;4926642;29;19981;-85
2022/06/06 00:09:47;;;;;;;;;;;18.30;92.00;;;;;;4918296;29;19958;-85
2022/06/06 00:12:15;;;;;;;;;;;18.30;92.00;;;;;;4920662;29;19927;-82
2022/06/06 00:14:42;;;;;;;;;;;18.20;92.00;;;;;;4916344;29;19927;-81
2022/06/06 00:17:09;;;;;;;;;;;18.20;92.00;;;;;;4914807;29;19931;-89
2022/06/06 00:19:36;;;;;;;;;;;18.20;92.00;;;;;;4910046;29;19928;-84
2022/06/06 00:22:02;;;;;;;;;;;18.20;91.90;;;;;;4910889;29;19983;-82
2022/06/06 00:24:29;;;;;;;;;;;18.20;91.90;;;;;;4923756;29;20451;-82
2022/06/06 00:26:56;;;;;;;;;;;18.10;91.90;;;;;;4916181;29;19927;-82
2022/06/06 00:29:23;;;;;;;;;;;18.10;91.90;;;;;;4916204;29;19931;-87
2022/06/06 00:34:51;;;;;;;;;;;18.10;91.90;;;;;;4924539;29;19927;-84
2022/06/06 00:37:20;;;;;;;;;;;18.00;91.80;;;;;;4927107;29;19930;-84
2022/06/06 00:39:47;;;;;;;;;;;17.90;91.90;;;;;;4929558;29;19990;-82
2022/06/06 00:42:25;;;;;;;;;;;17.90;91.90;;;;;;4916522;29;19975;-85
2022/06/06 00:45:11;;;;;;;;;;;17.80;91.90;;;;;;4915117;29;19931;-89
2022/06/06 00:47:38;;;;;;;;;;;17.80;92.00;;;;;;4915737;29;19938;-86
2022/06/06 00:50:10;;;;;;;;;;;17.80;92.00;;;;;;4915618;29;19971;-85
2022/06/06 00:52:39;;;;;;;;;;;17.80;92.10;;;;;;4919518;29;19958;-81
2022/06/06 00:55:15;;;;;;;;;;;17.80;92.10;;;;;;4923738;29;19959;-84
2022/06/06 00:57:59;;;;;;;;;;;17.80;92.20;;;;;;4949181;29;20343;-81
2022/06/06 01:00:27;;;;;;;;;;;17.70;92.20;;;;;;4927133;29;19977;-82
2022/06/06 01:02:56;;;;;;;;;;;17.70;92.20;;;;;;4918944;29;20010;-87
2022/06/06 01:05:24;;;;;;;;;;;17.70;92.30;;;;;;4918996;29;19931;-81
2022/06/06 01:07:50;;;;;;;;;;;17.70;92.30;;;;;;4918707;29;19942;-88
2022/06/06 01:10:18;;;;;;;;;;;17.60;92.40;;;;;;4918673;29;20390;-87
2022/06/06 01:12:48;;;;;;;;;;;17.60;92.50;;;;;;4918937;29;19927;-81
2022/06/06 01:15:16;;;;;;;;;;;17.50;92.50;;;;;;4917685;29;19928;-84
2022/06/06 01:17:42;;;;;;;;;;;17.50;92.40;;;;;;4918827;29;20046;-89
2022/06/06 01:20:28;;;;;;;;;;;17.40;92.40;;;;;;4933736;29;19959;-87
2022/06/06 01:22:55;;;;;;;;;;;17.40;92.40;;;;;;4919182;29;20380;-82
2022/06/06 01:25:31;;;;;;;;;;;17.40;92.40;;;;;;4919849;29;20013;-87
2022/06/06 01:28:01;;;;;;;;;;;17.30;92.40;;;;;;4918473;29;19986;-82
2022/06/06 01:30:48;;;;;;;;;;;17.30;92.40;;;;;;4929056;29;19979;-82
2022/06/06 01:33:15;;;;;;;;;;;17.30;92.40;;;;;;4931093;29;19927;-83
2022/06/06 01:35:43;;;;;;;;;;;17.20;92.40;;;;;;4918809;29;19983;-89
2022/06/06 01:38:11;;;;;;;;;;;17.20;92.60;;;;;;4917502;29;19979;-81
2022/06/06 01:40:37;;;;;;;;;;;17.10;92.50;;;;;;4916395;29;19991;-82
2022/06/06 01:43:13;;;;;;;;;;;17.10;93.20;;;;;;4933341;29;19931;-87
2022/06/06 01:45:42;;;;;;;;;;;17.10;92.90;;;;;;4927456;29;20359;-82
2022/06/06 01:48:15;;;;;;;;;;;17.10;92.90;;;;;;4917504;29;20026;-81
2022/06/06 01:50:43;;;;;;;;;;;17.00;92.90;;;;;;4911198;29;19931;-89
2022/06/06 01:53:14;;;;;;;;;;;17.10;92.90;;;;;;4917537;29;20003;-85
2022/06/06 01:55:42;;;;;;;;;;;17.00;92.80;;;;;;4917991;29;19927;-82
2022/06/06 01:58:11;;;;;;;;;;;17.00;92.80;;;;;;4918361;29;19931;-86
2022/06/06 02:00:38;;;;;;;;;;;17.00;92.80;;;;;;4918556;29;19983;-86
2022/06/06 02:03:05;;;;;;;;;;;16.90;93.00;;;;;;4922266;29;20396;-81
2022/06/06 02:05:32;;;;;;;;;;;16.90;93.10;;;;;;4936586;29;19927;-82
2022/06/06 02:07:59;;;;;;;;;;;16.90;93.40;;;;;;4914157;29;20373;-83
2022/06/06 02:10:26;;;;;;;;;;;16.80;93.40;;;;;;4916392;29;19951;-81
2022/06/06 02:12:53;;;;;;;;;;;16.80;93.40;;;;;;4914362;29;19970;-81
2022/06/06 02:15:22;;;;;;;;;;;16.80;93.30;;;;;;4932268;29;19978;-84
2022/06/06 02:17:50;;;;;;;;;;;16.80;93.20;;;;;;4908246;29;20468;-82
2022/06/06 02:20:18;;;;;;;;;;;16.80;93.60;;;;;;4917879;29;19927;-82
2022/06/06 02:22:45;;;;;;;;;;;16.80;93.20;;;;;;4917908;29;20363;-82
2022/06/06 02:25:13;;;;;;;;;;;16.70;93.20;;;;;;4917873;29;19991;-86
2022/06/06 02:27:40;;;;;;;;;;;16.70;93.10;;;;;;4920648;29;19927;-81
2022/06/06 02:30:09;;;;;;;;;;;16.70;93.00;;;;;;4911938;29;19986;-81
2022/06/06 02:32:35;;;;;;;;;;;16.70;93.00;;;;;;4917601;29;19927;-87
2022/06/06 02:35:02;;;;;;;;;;;16.70;93.00;;;;;;4931849;29;19990;-81
2022/06/06 02:37:29;;;;;;;;;;;16.70;93.00;;;;;;4918411;29;19927;-88
2022/06/06 02:39:56;;;;;;;;;;;16.60;93.10;;;;;;4914451;29;19991;-82
2022/06/06 02:42:23;;;;;;;;;;;16.60;93.10;;;;;;4928762;29;20376;-88
2022/06/06 02:44:49;;;;;;;;;;;16.60;93.10;;;;;;4917661;29;19966;-82
2022/06/06 02:47:16;;;;;;;;;;;16.50;93.00;;;;;;4916472;29;20020;-88
2022/06/06 02:49:43;;;;;;;;;;;16.50;93.00;;;;;;4914183;29;19928;-82
2022/06/06 02:52:09;;;;;;;;;;;16.50;92.90;;;;;;4928825;29;19986;-81
2022/06/06 02:54:36;;;;;;;;;;;16.50;92.80;;;;;;4914223;29;19932;-82
2022/06/06 02:57:03;;;;;;;;;;;16.40;92.70;;;;;;4929438;29;19966;-81
2022/06/06 02:59:32;;;;;;;;;;;16.40;92.80;;;;;;4913906;29;19979;-83
2022/06/06 03:01:59;;;;;;;;;;;16.30;92.80;;;;;;4929907;29;19970;-85
2022/06/06 03:04:25;;;;;;;;;;;16.30;92.70;;;;;;4917235;29;19933;-81
2022/06/06 03:07:09;;;;;;;;;;;16.30;92.70;;;;;;4934545;29;19993;-81
2022/06/06 03:09:48;;;;;;;;;;;16.30;92.60;;;;;;4922223;29;19932;-82
2022/06/06 03:12:33;;;;;;;;;;;16.30;92.50;;;;;;4916839;29;19983;-85
2022/06/06 03:15:12;;;;;;;;;;;16.20;92.50;;;;;;4916948;29;19927;-82
2022/06/06 03:20:58;;;;;;;;;;;16.20;92.60;;;;;;4917688;29;19931;-85
2022/06/06 03:23:51;;;;;;;;;;;16.10;92.50;;;;;;4932453;29;19927;-86
2022/06/06 03:26:33;;;;;;;;;;;16.10;92.50;;;;;;4917356;29;19958;-82
2022/06/06 03:29:08;;;;;;;;;;;16.10;92.50;;;;;;4915231;29;20376;-85
2022/06/06 03:31:38;;;;;;;;;;;16.00;92.40;;;;;;4917100;29;19970;-86
2022/06/06 03:34:08;;;;;;;;;;;16.00;92.30;;;;;;4914732;29;19942;-86
2022/06/06 03:36:38;;;;;;;;;;;15.90;92.30;;;;;;4922787;29;20002;-82
2022/06/06 03:39:12;;;;;;;;;;;15.90;92.30;;;;;;4922201;29;19927;-83
2022/06/06 03:41:51;;;;;;;;;;;15.90;92.40;;;;;;4925750;29;19950;-81
2022/06/06 03:44:25;;;;;;;;;;;15.80;92.30;;;;;;4918304;29;20296;-80
2022/06/06 03:46:57;;;;;;;;;;;15.80;92.50;;;;;;4927817;29;19931;-81
2022/06/06 03:49:31;;;;;;;;;;;15.80;92.60;;;;;;4932294;29;19952;-80
2022/06/06 03:52:00;;;;;;;;;;;15.70;92.70;;;;;;4916389;29;19927;-82
2022/06/06 03:54:43;;;;;;;;;;;15.70;92.60;;;;;;4916450;29;19927;-82
2022/06/06 03:57:15;;;;;;;;;;;15.80;92.70;;;;;;4916604;29;19927;-82
2022/06/06 03:59:44;;;;;;;;;;;15.80;92.80;;;;;;4923320;29;19987;-87
2022/06/06 04:02:14;;;;;;;;;;;15.80;92.80;;;;;;4911853;29;19928;-87
2022/06/06 04:04:42;;;;;;;;;;;15.80;92.90;;;;;;4912351;29;20056;-86
2022/06/06 04:07:09;;;;;;;;;;;15.80;92.90;;;;;;4911949;29;19931;-81
2022/06/06 04:09:35;;;;;;;;;;;15.80;92.90;;;;;;4926863;29;19935;-81
2022/06/06 04:12:02;;;;;;;;;;;15.80;92.80;;;;;;4916519;29;20090;-87
2022/06/06 04:14:42;;;;;;;;;;;15.70;92.70;;;;;;4912624;29;19959;-86
2022/06/06 04:17:24;;;;;;;;;;;15.80;92.60;;;;;;4918294;29;19995;-81
2022/06/06 04:20:10;;;;;;;;;;;15.80;92.10;;;;;;4926722;29;19933;-86
2022/06/06 04:22:49;;;;;;;;;;;15.80;91.90;;;;;;4909191;29;20331;-82
2022/06/06 04:25:32;;;;;;;;;;;15.90;91.70;;;;;;4912594;29;20317;-80
2022/06/06 04:28:14;;;;;;;;;;;15.90;91.00;;;;;;4924901;29;20034;-85
2022/06/06 04:30:46;;;;;;;;;;;16.00;89.80;;;;;;4925303;29;19931;-83
2022/06/06 04:33:20;;;;;;;;;;;16.20;83.00;;;;;;4925115;29;19979;-79
2022/06/06 04:35:52;;;;;;;;;;;16.50;77.20;;;;;;4917762;29;20411;-79
2022/06/06 04:38:28;;;;;;;;;;;16.80;74.80;;;;;;4923217;29;20356;-80
2022/06/06 04:41:10;;;;;;;;;;;17.20;71.40;;;;;;4929159;29;19979;-82
2022/06/06 04:43:41;;;;;;;;;;;17.50;70.40;;;;;;4912678;29;19927;-79
2022/06/06 04:46:12;;;;;;;;;;;17.70;69.30;;;;;;4919227;29;19938;-79
2022/06/06 04:48:40;;;;;;;;;;;17.90;67.60;;;;;;4932708;29;19935;-80
2022/06/06 04:51:07;;;;;;;;;;;18.20;65.70;;;;;;4928826;29;19978;-84
2022/06/06 04:53:38;;;;;;;;;;;18.40;64.40;;;;;;4920435;29;19970;-85
2022/06/06 04:56:06;;;;;;;;;;;18.50;64.20;;;;;;4919249;29;19927;-80
2022/06/06 04:58:34;;;;;;;;;;;18.70;63.10;;;;;;4918795;29;20388;-86
2022/06/06 05:01:01;;;;;;;;;;;18.80;63.70;;;;;;4918881;29;19978;-85
2022/06/06 05:03:28;;;;;;;;;;;18.90;61.60;;;;;;4919313;29;19975;-85
2022/06/06 05:05:58;;;;;;;;;;;19.00;61.30;;;;;;4919640;29;20070;-86
2022/06/06 05:08:37;;;;;;;;;;;19.10;60.60;;;;;;4933172;29;20419;-84
2022/06/06 05:11:13;;;;;;;;;;;19.30;60.10;;;;;;4917783;29;20384;-80
2022/06/06 05:13:46;;;;;;;;;;;19.30;59.20;;;;;;4933923;29;19931;-85
2022/06/06 05:16:22;;;;;;;;;;;19.50;58.30;;;;;;4918809;29;19935;-84
2022/06/06 05:18:55;;;;;;;;;;;19.60;59.00;;;;;;4926325;29;19935;-84
2022/06/06 05:21:40;;;;;;;;;;;19.60;58.90;;;;;;4920372;29;19931;-79
2022/06/06 05:24:19;;;;;;;;;;;19.60;57.70;;;;;;4920126;29;19970;-84
2022/06/06 05:27:15;;;;;;;;;;;19.70;58.20;;;;;;4915826;29;20014;-79
2022/06/06 05:29:42;;;;;;;;;;;19.80;56.80;;;;;;4911822;29;20296;-83
2022/06/06 05:32:28;;;;;;;;;;;19.90;57.60;;;;;;4915983;29;19977;-79
2022/06/06 05:35:12;;;;;;;;;;;19.90;57.00;;;;;;4918153;29;19935;-82
2022/06/06 05:37:58;;;;;;;;;;;19.90;56.80;;;;;;4924294;29;19974;-79
2022/06/06 05:40:27;;;;;;;;;;;20.00;56.90;;;;;;4932408;29;19931;-83
2022/06/06 05:42:54;;;;;;;;;;;20.10;55.50;;;;;;4919113;29;19983;-83
2022/06/06 05:45:37;;;;;;;;;;;20.20;55.70;;;;;;4929812;29;19983;-82
2022/06/06 05:48:29;;;;;;;;;;;20.20;57.70;;;;;;4918026;29;19977;-79
2022/06/06 05:50:57;;;;;;;;;;;20.30;55.70;;;;;;4919248;29;20281;-79
2022/06/06 05:53:34;;;;;;;;;;;20.30;56.20;;;;;;4928700;29;19969;-79
2022/06/06 05:56:30;;;;;;;;;;;20.40;54.40;;;;;;4911549;29;20468;-79
2022/06/06 05:59:26;;;;;;;;;;;20.40;55.00;;;;;;4901841;29;19927;-82
2022/06/06 06:02:12;;;;;;;;;;;20.50;55.30;;;;;;4909893;29;20379;-81
2022/06/06 06:04:38;;;;;;;;;;;20.60;54.30;;;;;;4917942;29;20021;-82
2022/06/06 06:07:05;;;;;;;;;;;20.60;54.90;;;;;;4919223;29;19935;-82
2022/06/06 06:09:41;;;;;;;;;;;20.70;53.00;;;;;;4919217;29;19935;-79
2022/06/06 06:12:08;;;;;;;;;;;20.80;53.80;;;;;;4902084;29;19927;-78
2022/06/06 06:14:47;;;;;;;;;;;20.80;53.80;;;;;;4934479;29;19928;-82
2022/06/06 06:17:16;;;;;;;;;;;20.90;53.20;;;;;;4910473;29;19933;-79
2022/06/06 06:19:46;;;;;;;;;;;20.90;53.70;;;;;;4922166;29;19927;-78
2022/06/06 06:22:13;;;;;;;;;;;21.00;53.80;;;;;;4921281;29;19927;-78
2022/06/06 06:24:42;;;;;;;;;;;21.00;53.90;;;;;;4937986;23;19930;-79
2022/06/06 06:27:10;;;;;;;;;;;21.10;52.50;;;;;;4943948;29;19974;-83
2022/06/06 06:29:37;;;;;;;;;;;21.10;53.00;;;;;;4939579;28;20331;-79
2022/06/06 06:32:23;;;;;;;;;;;21.20;52.90;;;;;;4942993;29;19934;-82
2022/06/06 06:34:55;;;;;;;;;;;21.30;53.20;;;;;;4946509;29;19930;-82
2022/06/06 06:37:22;;;;;;;;;;;21.30;52.90;;;;;;4952269;28;19977;-80
2022/06/06 06:40:01;;;;;;;;;;;21.40;53.00;;;;;;4943488;23;20309;-80
2022/06/06 06:42:38;;;;;;;;;;;21.50;52.50;;;;;;4942922;29;19981;-80
2022/06/06 06:45:16;;;;;;;;;;;21.60;51.90;;;;;;4928192;29;19926;-81
2022/06/06 06:47:46;;;;;;;;;;;21.60;52.10;;;;;;4942878;29;20341;-82
2022/06/06 06:50:18;;;;;;;;;;;21.70;51.70;;;;;;4943432;29;20032;-82
2022/06/06 06:52:57;;;;;;;;;;;21.80;52.50;;;;;;4939709;28;19926;-82
2022/06/06 06:55:24;;;;;;;;;;;21.80;50.70;;;;;;4957397;28;20458;-79
2022/06/06 06:57:51;;;;;;;;;;;21.90;51.80;;;;;;4940842;28;19934;-79
2022/06/06 07:00:20;;;;;;;;;;;22.00;53.60;;;;;;4955471;28;20331;-79
2022/06/06 07:08:41;;;;;;;;;;;22.30;50.70;;;;;;4956053;28;19989;-79
2022/06/06 07:11:10;;;;;;;;;;;22.40;50.90;;;;;;4947253;29;19927;-82
2022/06/06 07:13:43;;;;;;;;;;;22.50;50.80;;;;;;4939063;29;19926;-82
2022/06/06 07:16:19;;;;;;;;;;;22.60;51.60;;;;;;4934638;29;19926;-79
2022/06/06 07:18:49;;;;;;;;;;;22.70;52.20;;;;;;4939043;28;19930;-81
2022/06/06 07:21:17;;;;;;;;;;;22.80;52.30;;;;;;4947930;29;20058;-83
2022/06/06 07:23:48;;;;;;;;;;;23.10;52.00;;;;;;4937489;28;19978;-82
2022/06/06 07:26:15;;;;;;;;;;;23.20;52.20;;;;;;4953470;28;20001;-79
2022/06/06 07:28:42;;;;;;;;;;;23.40;51.00;;;;;;4938456;28;19937;-82
2022/06/06 07:31:12;;;;;;;;;;;23.60;49.90;;;;;;4944950;28;19963;-83
2022/06/06 07:33:45;;;;;;;;;;;23.70;50.20;;;;;;4938781;28;19930;-78
2022/06/06 07:36:31;;;;;;;;;;;23.90;50.40;;;;;;4941904;29;20399;-79
2022/06/06 07:38:58;;;;;;;;;;;24.00;48.30;;;;;;4939711;29;19930;-79
2022/06/06 07:41:40;;;;;;;;;;;24.10;47.90;;;;;;4938402;29;21600;-79
2022/06/06 07:44:16;;;;;;;;;;;24.20;47.40;;;;;;4947836;29;20380;-83
2022/06/06 07:46:47;;;;;;;;;;;24.30;48.50;;;;;;4947011;29;20025;-82
2022/06/06 07:49:20;;;;;;;;;;;24.50;46.60;;;;;;4948424;29;20029;-82
2022/06/06 07:51:54;;;;;;;;;;;24.60;47.40;;;;;;4937845;28;19935;-78
2022/06/06 07:54:21;;;;;;;;;;;24.80;47.90;;;;;;4948084;23;19930;-82
2022/06/06 07:57:17;;;;;;;;;;;24.90;48.40;;;;;;4919972;29;20331;-81
2022/06/06 07:59:52;;;;;;;;;;;25.10;47.50;;;;;;4913025;29;19930;-80
2022/06/06 08:02:25;;;;;;;;;;;25.30;46.80;;;;;;4924875;29;19982;-79
2022/06/06 08:05:20;;;;;;;;;;;25.50;44.90;;;;;;4934600;29;19935;-79
2022/06/06 08:08:05;;;;;;;;;;;25.60;45.90;;;;;;4914683;29;19934;-82
2022/06/06 08:10:42;;;;;;;;;;;25.90;45.10;;;;;;4926631;29;20364;-82
2022/06/06 08:13:31;;;;;;;;;;;26.00;44.10;;;;;;4938857;29;19990;-82
2022/06/06 08:16:03;;;;;;;;;;;26.20;43.60;;;;;;4939180;29;19978;-83
2022/06/06 08:18:59;;;;;;;;;;;26.40;43.50;;;;;;4932316;29;19927;-82
2022/06/06 08:21:29;;;;;;;;;;;26.50;43.40;;;;;;4935220;29;19931;-84
2022/06/06 08:23:58;;;;;;;;;;;26.70;44.50;;;;;;4935653;29;19931;-79
2022/06/06 08:26:25;;;;;;;;;;;26.80;45.10;;;;;;4923083;29;19931;-79
2022/06/06 08:28:53;;;;;;;;;;;26.90;44.10;;;;;;4929790;29;19927;-78
2022/06/06 08:31:20;;;;;;;;;;;27.00;44.60;;;;;;4924628;29;19931;-79
2022/06/06 08:33:47;;;;;;;;;;;27.20;45.00;;;;;;4933325;29;20316;-85
2022/06/06 08:36:22;;;;;;;;;;;27.30;45.20;;;;;;4939043;29;19931;-79
2022/06/06 08:38:51;;;;;;;;;;;27.30;45.00;;;;;;4948542;29;19926;-84
2022/06/06 08:41:25;;;;;;;;;;;27.30;48.60;;;;;;4939509;29;20295;-79
2022/06/06 08:44:00;;;;;;;;;;;27.40;50.10;;;;;;4938983;29;20422;-80
2022/06/06 08:46:48;;;;;;;;;;;27.30;50.80;;;;;;4930211;29;19962;-79
2022/06/06 08:52:48;;;;;;;;;;;27.30;54.00;;;;;;4937804;29;19927;-83
2022/06/06 08:55:37;;;;;;;;;;;27.30;54.90;;;;;;4940485;23;19927;-78
2022/06/06 08:58:07;;;;;;;;;;;27.40;56.10;;;;;;4932196;29;20380;-83
2022/06/06 09:00:54;;;;;;;;;;;27.50;55.90;;;;;;4936581;29;20077;-84
2022/06/06 09:03:20;;;;;;;;;;;27.50;56.90;;;;;;4938140;29;19978;-79
2022/06/06 09:05:50;;;;;;;;;;;27.50;56.80;;;;;;4939377;29;19979;-81
2022/06/06 09:08:37;;;;;;;;;;;27.50;55.90;;;;;;4952200;29;19927;-79
2022/06/06 09:11:04;;;;;;;;;;;27.50;55.90;;;;;;4919059;29;19935;-78
2022/06/06 09:13:46;;;;;;;;;;;27.60;56.30;;;;;;4917844;29;19962;-84
2022/06/06 09:16:23;;;;;;;;;;;27.60;56.40;;;;;;4933957;29;19927;-82
2022/06/06 09:18:56;;;;;;;;;;;27.60;56.70;;;;;;4926602;29;19938;-79
2022/06/06 09:21:41;;;;;;;;;;;27.70;57.20;;;;;;4921646;29;19931;-85
2022/06/06 09:24:27;;;;;;;;;;;27.80;56.30;;;;;;4942909;29;19930;-85
2022/06/06 09:27:00;;;;;;;;;;;27.90;57.70;;;;;;4922114;29;20006;-78
2022/06/06 09:29:26;;;;;;;;;;;28.00;55.80;;;;;;4922113;29;19970;-79
2022/06/06 09:32:14;;;;;;;;;;;28.20;55.60;;;;;;4933945;29;19991;-79
2022/06/06 09:34:47;;;;;;;;;;;28.20;56.50;;;;;;4931686;29;19927;-79
2022/06/06 09:37:17;;;;;;;;;;;28.30;55.90;;;;;;4933905;29;19926;-79
2022/06/06 09:39:55;;;;;;;;;;;28.40;54.70;;;;;;4953733;29;20386;-79
2022/06/06 09:42:25;;;;;;;;;;;28.40;55.00;;;;;;4937290;29;20335;-84
2022/06/06 09:44:52;;;;;;;;;;;28.50;55.50;;;;;;4934331;29;19969;-79
2022/06/06 09:47:30;;;;;;;;;;;28.50;53.40;;;;;;4927299;29;19927;-80
2022/06/06 09:50:24;;;;;;;;;;;28.50;53.20;;;;;;4930686;29;19975;-79
2022/06/06 09:53:06;;;;;;;;;;;28.60;53.80;;;;;;4933310;29;20340;-82
2022/06/06 09:59:03;;;;;;;;;;;28.70;52.30;;;;;;4916377;29;20379;-79
2022/06/06 10:01:49;;;;;;;;;;;28.80;51.80;;;;;;4919470;29;19927;-79
2022/06/06 10:04:34;;;;;;;;;;;28.80;52.10;;;;;;4918506;29;20435;-79
2022/06/06 10:07:30;;;;;;;;;;;28.80;52.20;;;;;;4933891;29;19931;-78
2022/06/06 10:10:15;;;;;;;;;;;28.80;53.20;;;;;;4912558;29;19933;-79
2022/06/06 10:12:50;;;;;;;;;;;28.90;55.00;;;;;;4913647;29;19983;-79
2022/06/06 10:15:22;;;;;;;;;;;29.00;51.90;;;;;;4917815;29;19927;-84
2022/06/06 10:18:09;;;;;;;;;;;29.10;51.80;;;;;;4915054;29;20397;-84
2022/06/06 10:20:59;;;;;;;;;;;29.10;52.20;;;;;;4927051;29;19926;-85
2022/06/06 10:23:44;;;;;;;;;;;29.10;52.70;;;;;;4925134;29;19973;-79
2022/06/06 10:26:19;;;;;;;;;;;29.10;52.20;;;;;;4917493;29;19927;-79
2022/06/06 10:29:03;;;;;;;;;;;29.10;51.90;;;;;;4916426;29;19995;-80
2022/06/06 10:31:54;;;;;;;;;;;29.00;52.40;;;;;;4930016;29;19986;-79
2022/06/06 10:34:40;;;;;;;;;;;29.10;52.20;;;;;;4923659;29;20447;-82
2022/06/06 10:37:13;;;;;;;;;;;29.20;53.10;;;;;;4921809;29;19955;-86
2022/06/06 10:40:00;;;;;;;;;;;29.30;52.40;;;;;;4918272;29;19960;-79
2022/06/06 10:42:30;;;;;;;;;;;29.30;49.60;;;;;;4910624;29;19934;-79
2022/06/06 10:45:17;;;;;;;;;;;29.40;51.20;;;;;;4927080;29;20358;-80
2022/06/06 10:47:45;;;;;;;;;;;29.40;49.40;;;;;;4920942;29;20403;-79
2022/06/06 10:50:38;;;;;;;;;;;29.30;49.70;;;;;;4917492;29;20372;-86
2022/06/06 10:53:24;;;;;;;;;;;29.40;50.10;;;;;;4914104;29;19931;-79
2022/06/06 10:55:54;;;;;;;;;;;29.50;49.40;;;;;;4931413;29;19932;-85
2022/06/06 10:58:21;;;;;;;;;;;29.60;49.00;;;;;;4931840;29;19927;-79
2022/06/06 11:01:07;;;;;;;;;;;29.70;47.60;;;;;;4920542;29;20388;-79
2022/06/06 11:03:53;;;;;;;;;;;29.80;47.00;;;;;;4906809;29;20090;-79
2022/06/06 11:06:43;;;;;;;;;;;30.00;49.20;;;;;;4917088;29;20285;-85
2022/06/06 11:09:13;;;;;;;;;;;30.30;46.80;;;;;;4917150;29;19951;-79
2022/06/06 11:11:51;;;;;;;;;;;30.30;46.80;;;;;;4932915;29;19935;-79
2022/06/06 11:14:23;;;;;;;;;;;30.30;47.40;;;;;;4912694;29;19983;-82
2022/06/06 11:17:08;;;;;;;;;;;30.30;47.70;;;;;;4908543;29;19998;-85
2022/06/06 11:19:46;;;;;;;;;;;30.30;46.80;;;;;;4920796;29;19931;-80
2022/06/06 11:22:24;;;;;;;;;;;30.40;46.80;;;;;;4932249;29;20307;-82
2022/06/06 11:24:51;;;;;;;;;;;30.40;46.40;;;;;;4905163;29;19927;-85
2022/06/06 11:27:30;;;;;;;;;;;30.60;46.30;;;;;;4915104;29;20282;-79
2022/06/06 11:30:06;;;;;;;;;;;30.60;45.30;;;;;;4908539;29;19927;-80
2022/06/06 11:32:33;;;;;;;;;;;30.60;45.50;;;;;;4910152;29;20046;-85
2022/06/06 11:35:19;;;;;;;;;;;30.60;46.30;;;;;;4908060;29;20277;-82
2022/06/06 11:37:48;;;;;;;;;;;30.80;45.20;;;;;;4911333;29;19995;-82
2022/06/06 11:40:20;;;;;;;;;;;30.80;45.00;;;;;;4908838;29;19987;-80
2022/06/06 11:43:04;;;;;;;;;;;30.90;45.50;;;;;;4929053;29;19927;-84
2022/06/06 11:45:50;;;;;;;;;;;31.00;43.80;;;;;;4933102;29;19951;-83
2022/06/06 11:48:17;;;;;;;;;;;31.00;44.10;;;;;;4928530;29;19986;-86
2022/06/06 11:51:02;;;;;;;;;;;31.10;44.60;;;;;;4932484;29;19966;-81
2022/06/06 11:53:44;;;;;;;;;;;31.20;44.70;;;;;;4929188;29;20009;-80
2022/06/06 11:56:29;;;;;;;;;;;31.30;42.30;;;;;;4920141;29;19927;-81
2022/06/06 11:58:59;;;;;;;;;;;31.20;41.50;;;;;;4924600;29;19987;-81
2022/06/06 12:01:41;;;;;;;;;;;31.20;41.00;;;;;;4911123;29;19931;-83
2022/06/06 12:04:23;;;;;;;;;;;31.20;40.40;;;;;;4911302;29;20384;-82
2022/06/06 12:06:59;;;;;;;;;;;31.20;40.70;;;;;;4907209;29;20370;-80
2022/06/06 12:09:39;;;;;;;;;;;31.30;41.50;;;;;;4913469;29;19983;-82
2022/06/06 12:12:09;;;;;;;;;;;31.60;41.50;;;;;;4913305;29;20019;-84
2022/06/06 12:14:38;;;;;;;;;;;31.70;40.40;;;;;;4905243;29;19939;-84
2022/06/06 12:17:08;;;;;;;;;;;31.80;40.50;;;;;;4909354;29;20347;-79
2022/06/06 12:19:47;;;;;;;;;;;31.90;39.90;;;;;;4914078;29;19927;-84
2022/06/06 12:22:14;;;;;;;;;;;32.00;39.50;;;;;;4922453;29;19995;-81
2022/06/06 12:24:56;;;;;;;;;;;32.20;38.40;;;;;;4914292;29;19928;-86
2022/06/06 12:27:46;;;;;;;;;;;32.30;37.30;;;;;;4911754;29;19932;-81
2022/06/06 12:30:37;;;;;;;;;;;32.50;37.80;;;;;;4904985;29;20307;-82
2022/06/06 12:33:18;;;;;;;;;;;32.60;37.60;;;;;;4908727;29;19935;-85
2022/06/06 12:35:52;;;;;;;;;;;32.60;37.20;;;;;;4913542;29;20345;-83
2022/06/06 12:38:19;;;;;;;;;;;32.60;37.50;;;;;;4923533;29;19934;-80
2022/06/06 12:40:46;;;;;;;;;;;32.70;35.90;;;;;;4921243;29;20447;-80
2022/06/06 12:43:15;;;;;;;;;;;32.80;35.20;;;;;;4926817;29;19927;-82
2022/06/06 12:45:42;;;;;;;;;;;32.90;32.50;;;;;;4921823;29;20307;-79
2022/06/06 12:48:16;;;;;;;;;;;33.00;31.80;;;;;;4920721;29;19967;-85
2022/06/06 12:51:07;;;;;;;;;;;33.10;32.50;;;;;;4916229;29;19983;-80
2022/06/06 12:53:41;;;;;;;;;;;33.30;33.40;;;;;;4938526;29;20422;-83
2022/06/06 12:56:25;;;;;;;;;;;33.80;32.40;;;;;;4919130;29;20300;-79
2022/06/06 12:58:55;;;;;;;;;;;34.20;33.30;;;;;;4937353;29;19934;-86
2022/06/06 13:01:42;;;;;;;;;;;34.40;32.00;;;;;;4937896;29;20376;-83
2022/06/06 13:04:35;;;;;;;;;;;34.40;34.40;;;;;;4916049;29;20041;-83
2022/06/06 13:07:21;;;;;;;;;;;34.40;33.80;;;;;;4911332;29;19928;-81
2022/06/06 13:10:09;;;;;;;;;;;34.20;34.50;;;;;;4919783;29;19942;-79
2022/06/06 13:12:41;;;;;;;;;;;33.70;35.00;;;;;;4876228;29;19966;-86
2022/06/06 13:15:22;;;;;;;;;;;33.60;35.20;;;;;;4920507;29;19983;-83
2022/06/06 13:17:49;;;;;;;;;;;33.60;36.00;;;;;;4931626;29;20384;-81
2022/06/06 13:20:22;;;;;;;;;;;33.50;36.00;;;;;;4926098;29;19938;-85
2022/06/06 13:23:12;;;;;;;;;;;33.40;34.90;;;;;;4935260;29;19966;-85
2022/06/06 13:25:57;;;;;;;;;;;33.40;34.40;;;;;;4912165;29;20447;-80
2022/06/06 13:28:29;;;;;;;;;;;33.40;34.10;;;;;;4938767;29;19931;-79
2022/06/06 13:31:06;;;;;;;;;;;33.30;33.20;;;;;;4918586;29;19932;-80
2022/06/06 13:33:33;;;;;;;;;;;33.30;33.60;;;;;;4923786;29;19983;-83
2022/06/06 13:36:15;;;;;;;;;;;33.40;34.00;;;;;;4924811;29;19934;-78
2022/06/06 13:38:45;;;;;;;;;;;33.60;33.10;;;;;;4911742;29;20443;-84
2022/06/06 13:41:15;;;;;;;;;;;33.80;34.60;;;;;;4909006;29;19956;-84
2022/06/06 13:43:50;;;;;;;;;;;33.90;34.10;;;;;;4921846;29;19931;-80
2022/06/06 13:46:21;;;;;;;;;;;33.90;33.10;;;;;;4920787;29;19927;-82
2022/06/06 13:49:26;;;;;;;;;;;33.80;34.30;;;;;;4916594;29;19959;-82
2022/06/06 13:52:00;;;;;;;;;;;33.80;35.50;;;;;;4874438;29;19928;-80
2022/06/06 13:54:31;;;;;;;;;;;33.80;36.00;;;;;;4865646;29;19968;-79
2022/06/06 13:57:13;;;;;;;;;;;34.10;35.90;;;;;;4904266;29;19928;-80
2022/06/06 13:59:40;;;;;;;;;;;34.40;35.50;;;;;;4916303;29;20385;-81
2022/06/06 14:02:14;;;;;;;;;;;34.50;35.20;;;;;;4910724;29;19931;-79
2022/06/06 14:04:53;;;;;;;;;;;34.70;34.70;;;;;;4926773;29;19991;-83
2022/06/06 14:07:38;;;;;;;;;;;34.80;34.40;;;;;;4936057;29;19947;-80
2022/06/06 14:10:07;;;;;;;;;;;34.40;33.20;;;;;;4927500;29;19951;-83
2022/06/06 14:12:37;;;;;;;;;;;34.10;33.90;;;;;;4923614;29;20006;-80
2022/06/06 14:15:06;;;;;;;;;;;33.60;34.10;;;;;;4911291;29;19950;-83
2022/06/06 14:17:36;;;;;;;;;;;33.20;35.20;;;;;;4922967;29;19983;-81
2022/06/06 14:20:09;;;;;;;;;;;32.80;35.50;;;;;;4935148;29;19927;-83
2022/06/06 14:22:37;;;;;;;;;;;32.30;35.90;;;;;;4915822;29;19978;-79
2022/06/06 14:25:05;;;;;;;;;;;32.00;36.00;;;;;;4920498;29;19963;-79
2022/06/06 14:27:33;;;;;;;;;;;31.80;36.70;;;;;;4919186;29;19927;-79
2022/06/06 14:30:05;;;;;;;;;;;31.70;37.00;;;;;;4914613;29;19931;-80
2022/06/06 14:32:41;;;;;;;;;;;31.60;37.70;;;;;;4920087;29;19927;-84
2022/06/06 14:35:22;;;;;;;;;;;31.50;38.70;;;;;;4934757;23;20407;-79
2022/06/06 14:37:49;;;;;;;;;;;31.60;38.70;;;;;;4968383;28;19930;-80
2022/06/06 14:40:35;;;;;;;;;;;31.50;38.10;;;;;;4939009;29;19933;-79
2022/06/06 14:43:05;;;;;;;;;;;31.40;37.30;;;;;;4964245;28;19931;-79
2022/06/06 14:45:37;;;;;;;;;;;31.40;37.60;;;;;;4949850;28;19973;-80
2022/06/06 14:48:06;;;;;;;;;;;31.40;37.70;;;;;;4959575;28;19937;-84
2022/06/06 14:50:50;;;;;;;;;;;31.50;38.20;;;;;;4950886;29;20303;-80
2022/06/06 14:53:19;;;;;;;;;;;31.70;37.70;;;;;;4950645;29;19933;-88
2022/06/06 14:55:48;;;;;;;;;;;32.00;37.60;;;;;;4957234;29;19926;-79
2022/06/06 14:58:18;;;;;;;;;;;32.00;36.30;;;;;;4955420;29;19930;-79
2022/06/06 15:00:58;;;;;;;;;;;32.10;36.70;;;;;;4952280;29;20291;-79
2022/06/06 15:03:37;;;;;;;;;;;32.10;37.30;;;;;;4943013;29;19926;-79
2022/06/06 15:06:06;;;;;;;;;;;32.10;37.10;;;;;;4932005;29;19927;-84
2022/06/06 15:08:37;;;;;;;;;;;32.10;38.10;;;;;;4945578;29;20272;-85
2022/06/06 15:11:07;;;;;;;;;;;32.00;38.60;;;;;;4928156;29;19977;-79
2022/06/06 15:13:36;;;;;;;;;;;31.80;39.00;;;;;;4934452;29;19970;-80
2022/06/06 15:16:05;;;;;;;;;;;31.70;39.40;;;;;;4924309;29;19951;-79
2022/06/06 15:18:35;;;;;;;;;;;31.50;39.70;;;;;;4935414;29;19927;-80